Back to Top

Language: 

My Weather Underground Personal Weather Station Historical Data with Graphs...

Delerius Weather Station Historical Data
Daily Summary for March 18, 2017 Units:  Both    English   Metric
« Previous Day
Next Day »
Daily Weekly Monthly Yearly Custom
  High: Low: Average:
Temperature: 55.6 °F /  13.1 °C 52.0 °F /  11.1 °C 53.2 °F /  11.8 °C
Dew Point: 51.7 °F /  10.9 °C 48.4 °F /  9.1 °C 49.8 °F /  9.9 °C
Humidity: 93 % 82 % 88 %
Wind Speed: 21.0 mph /  33.8 km/h - 11 mph /  17.7 km/h
Wind Gust: 34.0 mph /  54.7 km/h - -
Wind:- - WNW
Pressure: 29.76 in /  1007.7 hPa 29.57 in /  1001.2 hPa -
Precipitation: 0.02 in /  0.51 mm    
Historical Graphs
 
 
Tabular Data for March 18, 2017
Time Temperature Dew Point Pressure Wind Wind Speed Wind Gust Humidity Rainfall Rate (Hourly) solar Conditions
00:04 52.3 °F /  11.3 °C 48.6 °F /  9.2 °C 29.57 in /  1001.2 hPa WNW 16.0 mph /  25.7 km/h 31.0 mph /  49.9 km/h 87 % 0.00 in /  0 mm 0 W/m2
00:09 52.3 °F /  11.3 °C 48.6 °F /  9.2 °C 29.57 in /  1001.2 hPa WNW 15.0 mph /  24.1 km/h 29.0 mph /  46.7 km/h 87 % 0.00 in /  0 mm 0 W/m2
00:14 52.3 °F /  11.3 °C 48.9 °F /  9.4 °C 29.58 in /  1001.6 hPa WNW 16.0 mph /  25.7 km/h 29.0 mph /  46.7 km/h 88 % 0.00 in /  0 mm 0 W/m2
00:20 52.3 °F /  11.3 °C 48.9 °F /  9.4 °C 29.58 in /  1001.6 hPa WNW 16.0 mph /  25.7 km/h 29.0 mph /  46.7 km/h 88 % 0.00 in /  0 mm 0 W/m2
00:25 52.2 °F /  11.2 °C 48.7 °F /  9.3 °C 29.58 in /  1001.6 hPa WNW 17.0 mph /  27.4 km/h 34.0 mph /  54.7 km/h 88 % 0.00 in /  0 mm 0 W/m2
00:30 52.2 °F /  11.2 °C 48.7 °F /  9.3 °C 29.57 in /  1001.2 hPa WNW 19.0 mph /  30.6 km/h 34.0 mph /  54.7 km/h 88 % 0.00 in /  0 mm 0 W/m2
00:35 52.2 °F /  11.2 °C 49.0 °F /  9.4 °C 29.58 in /  1001.6 hPa WNW 19.0 mph /  30.6 km/h 31.0 mph /  49.9 km/h 89 % 0.00 in /  0 mm 0 W/m2
00:40 52.0 °F /  11.1 °C 48.8 °F /  9.3 °C 29.58 in /  1001.6 hPa WNW 20.0 mph /  32.2 km/h 31.0 mph /  49.9 km/h 89 % 0.00 in /  0 mm 0 W/m2
00:45 52.0 °F /  11.1 °C 48.8 °F /  9.3 °C 29.58 in /  1001.6 hPa WNW 21.0 mph /  33.8 km/h 34.0 mph /  54.7 km/h 89 % 0.00 in /  0 mm 0 W/m2
00:50 52.0 °F /  11.1 °C 48.8 °F /  9.3 °C 29.57 in /  1001.2 hPa WNW 21.0 mph /  33.8 km/h 34.0 mph /  54.7 km/h 89 % 0.00 in /  0 mm 0 W/m2
00:55 52.0 °F /  11.1 °C 48.8 °F /  9.3 °C 29.57 in /  1001.2 hPa West 20.0 mph /  32.2 km/h 29.0 mph /  46.7 km/h 89 % 0.00 in /  0 mm 0 W/m2
01:00 52.0 °F /  11.1 °C 48.8 °F /  9.3 °C 29.57 in /  1001.2 hPa West 18.0 mph /  29 km/h 28.0 mph /  45.1 km/h 89 % 0.00 in /  0 mm 0 W/m2
01:05 52.0 °F /  11.1 °C 49.1 °F /  9.5 °C 29.57 in /  1001.2 hPa West 16.0 mph /  25.7 km/h 25.0 mph /  40.2 km/h 90 % 0.00 in /  0 mm 0 W/m2
01:10 52.0 °F /  11.1 °C 48.8 °F /  9.3 °C 29.57 in /  1001.2 hPa WNW 16.0 mph /  25.7 km/h 26.0 mph /  41.8 km/h 89 % 0.00 in /  0 mm 0 W/m2
01:15 52.0 °F /  11.1 °C 48.8 °F /  9.3 °C 29.58 in /  1001.6 hPa West 16.0 mph /  25.7 km/h 26.0 mph /  41.8 km/h 89 % 0.00 in /  0 mm 0 W/m2
01:20 52.0 °F /  11.1 °C 48.8 °F /  9.3 °C 29.58 in /  1001.6 hPa West 16.0 mph /  25.7 km/h 30.0 mph /  48.3 km/h 89 % 0.00 in /  0 mm 0 W/m2
01:25 52.2 °F /  11.2 °C 49.0 °F /  9.4 °C 29.58 in /  1001.6 hPa WNW 16.0 mph /  25.7 km/h 30.0 mph /  48.3 km/h 89 % 0.00 in /  0 mm 0 W/m2
01:30 52.2 °F /  11.2 °C 48.7 °F /  9.3 °C 29.58 in /  1001.6 hPa WNW 17.0 mph /  27.4 km/h 30.0 mph /  48.3 km/h 88 % 0.00 in /  0 mm 0 W/m2
01:35 52.3 °F /  11.3 °C 48.9 °F /  9.4 °C 29.58 in /  1001.6 hPa WNW 18.0 mph /  29 km/h 30.0 mph /  48.3 km/h 88 % 0.00 in /  0 mm 0 W/m2
01:40 52.3 °F /  11.3 °C 48.9 °F /  9.4 °C 29.58 in /  1001.6 hPa WNW 17.0 mph /  27.4 km/h 27.0 mph /  43.5 km/h 88 % 0.00 in /  0 mm 0 W/m2
01:50 52.3 °F /  11.3 °C 48.6 °F /  9.2 °C 29.58 in /  1001.6 hPa West 18.0 mph /  29 km/h 32.0 mph /  51.5 km/h 87 % 0.00 in /  0 mm 0 W/m2
01:55 52.5 °F /  11.4 °C 48.8 °F /  9.3 °C 29.58 in /  1001.6 hPa WNW 19.0 mph /  30.6 km/h 29.0 mph /  46.7 km/h 87 % 0.00 in /  0 mm 0 W/m2
02:00 52.5 °F /  11.4 °C 48.8 °F /  9.3 °C 29.58 in /  1001.6 hPa WNW 18.0 mph /  29 km/h 29.0 mph /  46.7 km/h 87 % 0.00 in /  0 mm 0 W/m2
02:05 52.5 °F /  11.4 °C 48.8 °F /  9.3 °C 29.59 in /  1001.9 hPa WNW 17.0 mph /  27.4 km/h 31.0 mph /  49.9 km/h 87 % 0.00 in /  0 mm 0 W/m2
02:10 52.5 °F /  11.4 °C 48.8 °F /  9.3 °C 29.59 in /  1001.9 hPa WNW 19.0 mph /  30.6 km/h 31.0 mph /  49.9 km/h 87 % 0.00 in /  0 mm 0 W/m2
02:15 52.5 °F /  11.4 °C 48.8 °F /  9.3 °C 29.59 in /  1001.9 hPa WNW 19.0 mph /  30.6 km/h 31.0 mph /  49.9 km/h 87 % 0.00 in /  0 mm 0 W/m2
02:20 52.5 °F /  11.4 °C 48.8 °F /  9.3 °C 29.60 in /  1002.3 hPa WNW 17.0 mph /  27.4 km/h 31.0 mph /  49.9 km/h 87 % 0.00 in /  0 mm 0 W/m2
02:25 52.5 °F /  11.4 °C 48.8 °F /  9.3 °C 29.59 in /  1001.9 hPa WNW 17.0 mph /  27.4 km/h 28.0 mph /  45.1 km/h 87 % 0.00 in /  0 mm 0 W/m2
02:30 52.5 °F /  11.4 °C 48.8 °F /  9.3 °C 29.59 in /  1001.9 hPa WNW 17.0 mph /  27.4 km/h 28.0 mph /  45.1 km/h 87 % 0.00 in /  0 mm 0 W/m2
02:35 52.3 °F /  11.3 °C 48.6 °F /  9.2 °C 29.60 in /  1002.3 hPa WNW 16.0 mph /  25.7 km/h 25.0 mph /  40.2 km/h 87 % 0.00 in /  0 mm 0 W/m2
02:40 52.3 °F /  11.3 °C 48.6 °F /  9.2 °C 29.60 in /  1002.3 hPa WNW 16.0 mph /  25.7 km/h 26.0 mph /  41.8 km/h 87 % 0.00 in /  0 mm 0 W/m2
02:45 52.3 °F /  11.3 °C 48.6 °F /  9.2 °C 29.60 in /  1002.3 hPa WNW 15.0 mph /  24.1 km/h 26.0 mph /  41.8 km/h 87 % 0.00 in /  0 mm 0 W/m2
02:50 52.3 °F /  11.3 °C 48.6 °F /  9.2 °C 29.60 in /  1002.3 hPa WNW 17.0 mph /  27.4 km/h 28.0 mph /  45.1 km/h 87 % 0.00 in /  0 mm 0 W/m2
02:55 52.3 °F /  11.3 °C 48.6 °F /  9.2 °C 29.60 in /  1002.3 hPa WNW 17.0 mph /  27.4 km/h 28.0 mph /  45.1 km/h 87 % 0.00 in /  0 mm 0 W/m2
03:00 52.3 °F /  11.3 °C 48.6 °F /  9.2 °C 29.60 in /  1002.3 hPa WNW 15.0 mph /  24.1 km/h 27.0 mph /  43.5 km/h 87 % 0.00 in /  0 mm 0 W/m2
03:05 52.3 °F /  11.3 °C 48.6 °F /  9.2 °C 29.60 in /  1002.3 hPa WNW 15.0 mph /  24.1 km/h 27.0 mph /  43.5 km/h 87 % 0.00 in /  0 mm 0 W/m2
03:10 52.2 °F /  11.2 °C 48.7 °F /  9.3 °C 29.60 in /  1002.3 hPa WNW 15.0 mph /  24.1 km/h 29.0 mph /  46.7 km/h 88 % 0.00 in /  0 mm 0 W/m2
03:15 52.2 °F /  11.2 °C 48.7 °F /  9.3 °C 29.59 in /  1001.9 hPa WNW 15.0 mph /  24.1 km/h 29.0 mph /  46.7 km/h 88 % 0.00 in /  0 mm 0 W/m2
03:20 52.2 °F /  11.2 °C 48.7 °F /  9.3 °C 29.60 in /  1002.3 hPa WNW 15.0 mph /  24.1 km/h 26.0 mph /  41.8 km/h 88 % 0.00 in /  0 mm 0 W/m2
03:25 52.2 °F /  11.2 °C 48.7 °F /  9.3 °C 29.60 in /  1002.3 hPa WNW 15.0 mph /  24.1 km/h 26.0 mph /  41.8 km/h 88 % 0.00 in /  0 mm 0 W/m2
03:30 52.2 °F /  11.2 °C 48.7 °F /  9.3 °C 29.60 in /  1002.3 hPa WNW 16.0 mph /  25.7 km/h 26.0 mph /  41.8 km/h 88 % 0.00 in /  0 mm 0 W/m2
03:35 52.2 °F /  11.2 °C 48.7 °F /  9.3 °C 29.61 in /  1002.6 hPa WNW 15.0 mph /  24.1 km/h 28.0 mph /  45.1 km/h 88 % 0.00 in /  0 mm 0 W/m2
03:40 52.3 °F /  11.3 °C 48.9 °F /  9.4 °C 29.61 in /  1002.6 hPa WNW 14.0 mph /  22.5 km/h 28.0 mph /  45.1 km/h 88 % 0.00 in /  0 mm 0 W/m2
03:50 52.3 °F /  11.3 °C 48.9 °F /  9.4 °C 29.62 in /  1002.9 hPa WNW 13.0 mph /  20.9 km/h 25.0 mph /  40.2 km/h 88 % 0.00 in /  0 mm 0 W/m2
03:55 52.3 °F /  11.3 °C 48.9 °F /  9.4 °C 29.62 in /  1002.9 hPa WNW 12.0 mph /  19.3 km/h 22.0 mph /  35.4 km/h 88 % 0.00 in /  0 mm 0 W/m2
04:00 52.2 °F /  11.2 °C 48.7 °F /  9.3 °C 29.62 in /  1002.9 hPa WNW 12.0 mph /  19.3 km/h 29.0 mph /  46.7 km/h 88 % 0.00 in /  0 mm 0 W/m2
04:05 52.2 °F /  11.2 °C 48.7 °F /  9.3 °C 29.63 in /  1003.3 hPa WNW 13.0 mph /  20.9 km/h 29.0 mph /  46.7 km/h 88 % 0.00 in /  0 mm 0 W/m2
04:10 52.2 °F /  11.2 °C 49.0 °F /  9.4 °C 29.63 in /  1003.3 hPa WNW 12.0 mph /  19.3 km/h 22.0 mph /  35.4 km/h 89 % 0.00 in /  0 mm 0 W/m2
04:15 52.2 °F /  11.2 °C 49.0 °F /  9.4 °C 29.63 in /  1003.3 hPa WNW 13.0 mph /  20.9 km/h 23.0 mph /  37 km/h 89 % 0.00 in /  0 mm 0 W/m2
04:20 52.2 °F /  11.2 °C 49.0 °F /  9.4 °C 29.63 in /  1003.3 hPa WNW 13.0 mph /  20.9 km/h 23.0 mph /  37 km/h 89 % 0.00 in /  0 mm 0 W/m2
04:25 52.2 °F /  11.2 °C 49.0 °F /  9.4 °C 29.63 in /  1003.3 hPa WNW 12.0 mph /  19.3 km/h 22.0 mph /  35.4 km/h 89 % 0.00 in /  0 mm 0 W/m2
04:30 52.2 °F /  11.2 °C 49.0 °F /  9.4 °C 29.63 in /  1003.3 hPa WNW 11.0 mph /  17.7 km/h 20.0 mph /  32.2 km/h 89 % 0.00 in /  0 mm 0 W/m2
04:35 52.2 °F /  11.2 °C 48.7 °F /  9.3 °C 29.64 in /  1003.6 hPa WNW 11.0 mph /  17.7 km/h 23.0 mph /  37 km/h 88 % 0.00 in /  0 mm 0 W/m2
04:40 52.2 °F /  11.2 °C 48.7 °F /  9.3 °C 29.64 in /  1003.6 hPa WNW 12.0 mph /  19.3 km/h 23.0 mph /  37 km/h 88 % 0.00 in /  0 mm 0 W/m2
04:45 52.2 °F /  11.2 °C 48.7 °F /  9.3 °C 29.64 in /  1003.6 hPa WNW 12.0 mph /  19.3 km/h 22.0 mph /  35.4 km/h 88 % 0.00 in /  0 mm 0 W/m2
04:50 52.2 °F /  11.2 °C 48.7 °F /  9.3 °C 29.64 in /  1003.6 hPa WNW 13.0 mph /  20.9 km/h 24.0 mph /  38.6 km/h 88 % 0.00 in /  0 mm 0 W/m2
04:52 52.2 °F /  11.2 °C 48.7 °F /  9.3 °C 29.64 in /  1003.6 hPa WNW 13.0 mph /  20.9 km/h 24.0 mph /  38.6 km/h 88 % 0.00 in /  0 mm 0 W/m2
04:57 52.2 °F /  11.2 °C 48.7 °F /  9.3 °C 29.64 in /  1003.6 hPa WNW 14.0 mph /  22.5 km/h 28.0 mph /  45.1 km/h 88 % 0.00 in /  0 mm 0 W/m2
05:02 52.2 °F /  11.2 °C 48.7 °F /  9.3 °C 29.63 in /  1003.3 hPa WNW 13.0 mph /  20.9 km/h 28.0 mph /  45.1 km/h 88 % 0.00 in /  0 mm 0 W/m2
05:07 52.2 °F /  11.2 °C 48.4 °F /  9.1 °C 29.63 in /  1003.3 hPa WNW 13.0 mph /  20.9 km/h 25.0 mph /  40.2 km/h 87 % 0.00 in /  0 mm 0 W/m2
05:12 52.3 °F /  11.3 °C 48.6 °F /  9.2 °C 29.63 in /  1003.3 hPa WNW 15.0 mph /  24.1 km/h 27.0 mph /  43.5 km/h 87 % 0.00 in /  0 mm 0 W/m2
05:17 52.3 °F /  11.3 °C 48.6 °F /  9.2 °C 29.64 in /  1003.6 hPa WNW 14.0 mph /  22.5 km/h 27.0 mph /  43.5 km/h 87 % 0.00 in /  0 mm 0 W/m2
05:22 52.3 °F /  11.3 °C 48.6 °F /  9.2 °C 29.64 in /  1003.6 hPa WNW 13.0 mph /  20.9 km/h 27.0 mph /  43.5 km/h 87 % 0.00 in /  0 mm 0 W/m2
05:32 52.2 °F /  11.2 °C 48.4 °F /  9.1 °C 29.64 in /  1003.6 hPa WNW 14.0 mph /  22.5 km/h 23.0 mph /  37 km/h 87 % 0.00 in /  0 mm 0 W/m2
05:37 52.2 °F /  11.2 °C 48.4 °F /  9.1 °C 29.65 in /  1003.9 hPa WNW 13.0 mph /  20.9 km/h 25.0 mph /  40.2 km/h 87 % 0.00 in /  0 mm 0 W/m2
05:42 52.2 °F /  11.2 °C 48.4 °F /  9.1 °C 29.65 in /  1003.9 hPa WNW 13.0 mph /  20.9 km/h 25.0 mph /  40.2 km/h 87 % 0.00 in /  0 mm 0 W/m2
05:47 52.2 °F /  11.2 °C 48.4 °F /  9.1 °C 29.65 in /  1003.9 hPa WNW 12.0 mph /  19.3 km/h 25.0 mph /  40.2 km/h 87 % 0.00 in /  0 mm 0 W/m2
05:52 52.2 °F /  11.2 °C 48.4 °F /  9.1 °C 29.65 in /  1003.9 hPa WNW 13.0 mph /  20.9 km/h 23.0 mph /  37 km/h 87 % 0.00 in /  0 mm 0 W/m2
05:57 52.2 °F /  11.2 °C 48.4 °F /  9.1 °C 29.65 in /  1003.9 hPa WNW 14.0 mph /  22.5 km/h 23.0 mph /  37 km/h 87 % 0.00 in /  0 mm 0 W/m2
06:02 52.2 °F /  11.2 °C 48.4 °F /  9.1 °C 29.66 in /  1004.3 hPa WNW 13.0 mph /  20.9 km/h 24.0 mph /  38.6 km/h 87 % 0.00 in /  0 mm 0 W/m2
06:04 52.2 °F /  11.2 °C 48.4 °F /  9.1 °C 29.66 in /  1004.3 hPa WNW 12.0 mph /  19.3 km/h 24.0 mph /  38.6 km/h 87 % 0.00 in /  0 mm 0 W/m2
06:09 52.2 °F /  11.2 °C 48.4 °F /  9.1 °C 29.66 in /  1004.3 hPa WNW 11.0 mph /  17.7 km/h 24.0 mph /  38.6 km/h 87 % 0.00 in /  0 mm 0 W/m2
06:14 52.0 °F /  11.1 °C 48.5 °F /  9.2 °C 29.66 in /  1004.3 hPa WNW 9.0 mph /  14.5 km/h 19.0 mph /  30.6 km/h 88 % 0.00 in /  0 mm 0 W/m2
06:19 52.0 °F /  11.1 °C 48.5 °F /  9.2 °C 29.66 in /  1004.3 hPa WNW 11.0 mph /  17.7 km/h 23.0 mph /  37 km/h 88 % 0.00 in /  0 mm 0 W/m2
06:24 52.0 °F /  11.1 °C 48.5 °F /  9.2 °C 29.67 in /  1004.6 hPa WNW 12.0 mph /  19.3 km/h 23.0 mph /  37 km/h 88 % 0.00 in /  0 mm 0 W/m2
06:29 52.0 °F /  11.1 °C 48.5 °F /  9.2 °C 29.67 in /  1004.6 hPa WNW 12.0 mph /  19.3 km/h 23.0 mph /  37 km/h 88 % 0.00 in /  0 mm 5 W/m2
06:34 52.0 °F /  11.1 °C 48.5 °F /  9.2 °C 29.68 in /  1005 hPa WNW 12.0 mph /  19.3 km/h 23.0 mph /  37 km/h 88 % 0.00 in /  0 mm 7 W/m2
06:39 52.0 °F /  11.1 °C 48.5 °F /  9.2 °C 29.68 in /  1005 hPa WNW 13.0 mph /  20.9 km/h 24.0 mph /  38.6 km/h 88 % 0.00 in /  0 mm 7 W/m2
06:40 52.0 °F /  11.1 °C 48.5 °F /  9.2 °C 29.68 in /  1005 hPa WNW 13.0 mph /  20.9 km/h 24.0 mph /  38.6 km/h 88 % 0.00 in /  0 mm 7 W/m2
06:45 52.2 °F /  11.2 °C 48.7 °F /  9.3 °C 29.68 in /  1005 hPa WNW 14.0 mph /  22.5 km/h 24.0 mph /  38.6 km/h 88 % 0.00 in /  0 mm 7 W/m2
06:50 52.2 °F /  11.2 °C 48.7 °F /  9.3 °C 29.68 in /  1005 hPa WNW 14.0 mph /  22.5 km/h 28.0 mph /  45.1 km/h 88 % 0.00 in /  0 mm 16 W/m2
06:55 52.0 °F /  11.1 °C 48.5 °F /  9.2 °C 29.68 in /  1005 hPa WNW 14.0 mph /  22.5 km/h 28.0 mph /  45.1 km/h 88 % 0.00 in /  0 mm 14 W/m2
07:00 52.0 °F /  11.1 °C 48.5 °F /  9.2 °C 29.68 in /  1005 hPa WNW 13.0 mph /  20.9 km/h 25.0 mph /  40.2 km/h 88 % 0.00 in /  0 mm 14 W/m2
07:05 52.0 °F /  11.1 °C 48.8 °F /  9.3 °C 29.68 in /  1005 hPa WNW 12.0 mph /  19.3 km/h 21.0 mph /  33.8 km/h 89 % 0.00 in /  0 mm 16 W/m2
07:10 52.0 °F /  11.1 °C 48.8 °F /  9.3 °C 29.68 in /  1005 hPa WNW 12.0 mph /  19.3 km/h 24.0 mph /  38.6 km/h 89 % 0.00 in /  0 mm 16 W/m2
07:15 52.0 °F /  11.1 °C 48.8 °F /  9.3 °C 29.68 in /  1005 hPa WNW 12.0 mph /  19.3 km/h 24.0 mph /  38.6 km/h 89 % 0.00 in /  0 mm 25 W/m2
07:20 52.0 °F /  11.1 °C 48.8 °F /  9.3 °C 29.69 in /  1005.3 hPa WNW 11.0 mph /  17.7 km/h 22.0 mph /  35.4 km/h 89 % 0.00 in /  0 mm 18 W/m2
07:25 52.0 °F /  11.1 °C 48.8 °F /  9.3 °C 29.68 in /  1005 hPa WNW 12.0 mph /  19.3 km/h 22.0 mph /  35.4 km/h 89 % 0.00 in /  0 mm 26 W/m2
07:30 52.0 °F /  11.1 °C 48.8 °F /  9.3 °C 29.69 in /  1005.3 hPa WNW 12.0 mph /  19.3 km/h 22.0 mph /  35.4 km/h 89 % 0.00 in /  0 mm 39 W/m2
07:35 52.0 °F /  11.1 °C 48.8 °F /  9.3 °C 29.69 in /  1005.3 hPa WNW 12.0 mph /  19.3 km/h 21.0 mph /  33.8 km/h 89 % 0.00 in /  0 mm 60 W/m2
07:40 52.0 °F /  11.1 °C 48.8 °F /  9.3 °C 29.69 in /  1005.3 hPa WNW 13.0 mph /  20.9 km/h 22.0 mph /  35.4 km/h 89 % 0.00 in /  0 mm 58 W/m2
07:45 52.0 °F /  11.1 °C 48.8 °F /  9.3 °C 29.69 in /  1005.3 hPa WNW 13.0 mph /  20.9 km/h 22.0 mph /  35.4 km/h 89 % 0.00 in /  0 mm 93 W/m2
07:50 52.2 °F /  11.2 °C 49.0 °F /  9.4 °C 29.69 in /  1005.3 hPa WNW 13.0 mph /  20.9 km/h 25.0 mph /  40.2 km/h 89 % 0.00 in /  0 mm 65 W/m2
07:55 52.2 °F /  11.2 °C 49.0 °F /  9.4 °C 29.68 in /  1005 hPa WNW 13.0 mph /  20.9 km/h 25.0 mph /  40.2 km/h 89 % 0.00 in /  0 mm 121 W/m2
08:00 52.3 °F /  11.3 °C 49.2 °F /  9.6 °C 29.68 in /  1005 hPa WNW 12.0 mph /  19.3 km/h 22.0 mph /  35.4 km/h 89 % 0.00 in /  0 mm 137 W/m2
08:05 52.3 °F /  11.3 °C 49.2 °F /  9.6 °C 29.68 in /  1005 hPa WNW 12.0 mph /  19.3 km/h 22.0 mph /  35.4 km/h 89 % 0.00 in /  0 mm 148 W/m2
08:10 52.7 °F /  11.5 °C 49.5 °F /  9.7 °C 29.69 in /  1005.3 hPa WNW 13.0 mph /  20.9 km/h 22.0 mph /  35.4 km/h 89 % 0.00 in /  0 mm 188 W/m2
08:15 53.1 °F /  11.7 °C 49.6 °F /  9.8 °C 29.69 in /  1005.3 hPa WNW 13.0 mph /  20.9 km/h 22.0 mph /  35.4 km/h 88 % 0.00 in /  0 mm 223 W/m2
08:20 53.2 °F /  11.8 °C 49.8 °F /  9.9 °C 29.69 in /  1005.3 hPa WNW 11.0 mph /  17.7 km/h 22.0 mph /  35.4 km/h 88 % 0.00 in /  0 mm 176 W/m2
08:25 53.4 °F /  11.9 °C 50.0 °F /  10 °C 29.69 in /  1005.3 hPa WNW 11.0 mph /  17.7 km/h 19.0 mph /  30.6 km/h 88 % 0.00 in /  0 mm 204 W/m2
08:30 53.6 °F /  12 °C 50.1 °F /  10.1 °C 29.69 in /  1005.3 hPa WNW 11.0 mph /  17.7 km/h 19.0 mph /  30.6 km/h 88 % 0.00 in /  0 mm 239 W/m2
08:35 53.8 °F /  12.1 °C 50.0 °F /  10 °C 29.68 in /  1005 hPa WNW 12.0 mph /  19.3 km/h 21.0 mph /  33.8 km/h 87 % 0.00 in /  0 mm 276 W/m2
08:40 54.0 °F /  12.2 °C 50.2 °F /  10.1 °C 29.68 in /  1005 hPa WNW 11.0 mph /  17.7 km/h 21.0 mph /  33.8 km/h 87 % 0.00 in /  0 mm 160 W/m2
08:45 54.0 °F /  12.2 °C 50.2 °F /  10.1 °C 29.69 in /  1005.3 hPa WNW 12.0 mph /  19.3 km/h 22.0 mph /  35.4 km/h 87 % 0.00 in /  0 mm 232 W/m2
08:50 54.0 °F /  12.2 °C 50.2 °F /  10.1 °C 29.69 in /  1005.3 hPa WNW 12.0 mph /  19.3 km/h 22.0 mph /  35.4 km/h 87 % 0.00 in /  0 mm 116 W/m2
08:55 54.0 °F /  12.2 °C 50.2 °F /  10.1 °C 29.70 in /  1005.6 hPa WNW 11.0 mph /  17.7 km/h 20.0 mph /  32.2 km/h 87 % 0.00 in /  0 mm 162 W/m2
09:00 53.8 °F /  12.1 °C 50.0 °F /  10 °C 29.70 in /  1005.6 hPa WNW 12.0 mph /  19.3 km/h 21.0 mph /  33.8 km/h 87 % 0.00 in /  0 mm 185 W/m2
09:05 53.8 °F /  12.1 °C 50.0 °F /  10 °C 29.70 in /  1005.6 hPa WNW 11.0 mph /  17.7 km/h 21.0 mph /  33.8 km/h 87 % 0.00 in /  0 mm 181 W/m2
09:10 54.0 °F /  12.2 °C 50.2 °F /  10.1 °C 29.70 in /  1005.6 hPa WNW 9.0 mph /  14.5 km/h 19.0 mph /  30.6 km/h 87 % 0.00 in /  0 mm 132 W/m2
09:15 54.0 °F /  12.2 °C 50.2 °F /  10.1 °C 29.70 in /  1005.6 hPa WNW 8.0 mph /  12.9 km/h 18.0 mph /  29 km/h 87 % 0.00 in /  0 mm 128 W/m2
09:20 54.0 °F /  12.2 °C 50.2 °F /  10.1 °C 29.70 in /  1005.6 hPa WNW 8.0 mph /  12.9 km/h 18.0 mph /  29 km/h 87 % 0.00 in /  0 mm 114 W/m2
09:25 53.8 °F /  12.1 °C 49.7 °F /  9.8 °C 29.70 in /  1005.6 hPa WNW 10.0 mph /  16.1 km/h 20.0 mph /  32.2 km/h 86 % 0.00 in /  0 mm 148 W/m2
09:30 53.8 °F /  12.1 °C 49.7 °F /  9.8 °C 29.71 in /  1006 hPa WNW 11.0 mph /  17.7 km/h 20.0 mph /  32.2 km/h 86 % 0.00 in /  0 mm 146 W/m2
09:35 53.8 °F /  12.1 °C 49.7 °F /  9.8 °C 29.71 in /  1006 hPa WNW 10.0 mph /  16.1 km/h 16.0 mph /  25.7 km/h 86 % 0.00 in /  0 mm 65 W/m2
09:40 53.8 °F /  12.1 °C 49.7 °F /  9.8 °C 29.71 in /  1006 hPa WNW 10.0 mph /  16.1 km/h 21.0 mph /  33.8 km/h 86 % 0.00 in /  0 mm 77 W/m2
09:45 53.6 °F /  12 °C 49.5 °F /  9.7 °C 29.71 in /  1006 hPa WNW 12.0 mph /  19.3 km/h 22.0 mph /  35.4 km/h 86 % 0.00 in /  0 mm 67 W/m2
09:50 53.4 °F /  11.9 °C 49.6 °F /  9.8 °C 29.71 in /  1006 hPa WNW 10.0 mph /  16.1 km/h 22.0 mph /  35.4 km/h 87 % 0.00 in /  0 mm 62 W/m2
09:55 53.4 °F /  11.9 °C 49.6 °F /  9.8 °C 29.71 in /  1006 hPa WNW 6.0 mph /  9.7 km/h 11.0 mph /  17.7 km/h 87 % 0.00 in /  0 mm 95 W/m2
10:00 53.2 °F /  11.8 °C 49.8 °F /  9.9 °C 29.71 in /  1006 hPa WNW 5.0 mph /  8 km/h 13.0 mph /  20.9 km/h 88 % 0.00 in /  0 mm 98 W/m2
10:05 53.4 °F /  11.9 °C 49.6 °F /  9.8 °C 29.71 in /  1006 hPa WNW 7.0 mph /  11.3 km/h 18.0 mph /  29 km/h 87 % 0.00 in /  0 mm 88 W/m2
10:10 53.4 °F /  11.9 °C 49.6 °F /  9.8 °C 29.72 in /  1006.3 hPa WNW 9.0 mph /  14.5 km/h 18.0 mph /  29 km/h 87 % 0.00 in /  0 mm 91 W/m2
10:15 53.8 °F /  12.1 °C 49.7 °F /  9.8 °C 29.72 in /  1006.3 hPa WNW 10.0 mph /  16.1 km/h 26.0 mph /  41.8 km/h 86 % 0.00 in /  0 mm 65 W/m2
10:21 53.8 °F /  12.1 °C 49.4 °F /  9.7 °C 29.72 in /  1006.3 hPa WNW 12.0 mph /  19.3 km/h 26.0 mph /  41.8 km/h 85 % 0.00 in /  0 mm 70 W/m2
10:26 53.8 °F /  12.1 °C 49.4 °F /  9.7 °C 29.72 in /  1006.3 hPa WNW 12.0 mph /  19.3 km/h 22.0 mph /  35.4 km/h 85 % 0.00 in /  0 mm 65 W/m2
10:31 54.0 °F /  12.2 °C 49.2 °F /  9.6 °C 29.72 in /  1006.3 hPa WNW 9.0 mph /  14.5 km/h 16.0 mph /  25.7 km/h 84 % 0.00 in /  0 mm 70 W/m2
10:36 54.0 °F /  12.2 °C 49.2 °F /  9.6 °C 29.71 in /  1006 hPa WNW 7.0 mph /  11.3 km/h 13.0 mph /  20.9 km/h 84 % 0.00 in /  0 mm 62 W/m2
10:41 54.0 °F /  12.2 °C 49.2 °F /  9.6 °C 29.72 in /  1006.3 hPa WNW 9.0 mph /  14.5 km/h 23.0 mph /  37 km/h 84 % 0.00 in /  0 mm 79 W/m2
10:46 54.1 °F /  12.3 °C 49.4 °F /  9.7 °C 29.73 in /  1006.7 hPa West 12.0 mph /  19.3 km/h 23.0 mph /  37 km/h 84 % 0.00 in /  0 mm 188 W/m2
10:51 54.1 °F /  12.3 °C 49.1 °F /  9.5 °C 29.72 in /  1006.3 hPa West 11.0 mph /  17.7 km/h 21.0 mph /  33.8 km/h 83 % 0.00 in /  0 mm 93 W/m2
10:56 54.3 °F /  12.4 °C 49.3 °F /  9.6 °C 29.73 in /  1006.7 hPa WNW 12.0 mph /  19.3 km/h 21.0 mph /  33.8 km/h 83 % 0.00 in /  0 mm 97 W/m2
11:01 54.3 °F /  12.4 °C 48.9 °F /  9.4 °C 29.74 in /  1007 hPa WNW 12.0 mph /  19.3 km/h 21.0 mph /  33.8 km/h 82 % 0.00 in /  0 mm 120 W/m2
11:06 54.5 °F /  12.5 °C 49.1 °F /  9.5 °C 29.74 in /  1007 hPa WNW 12.0 mph /  19.3 km/h 24.0 mph /  38.6 km/h 82 % 0.00 in /  0 mm 130 W/m2
11:11 54.7 °F /  12.6 °C 49.3 °F /  9.6 °C 29.74 in /  1007 hPa WNW 13.0 mph /  20.9 km/h 24.0 mph /  38.6 km/h 82 % 0.00 in /  0 mm 134 W/m2
11:16 54.7 °F /  12.6 °C 49.3 °F /  9.6 °C 29.75 in /  1007.3 hPa WNW 13.0 mph /  20.9 km/h 24.0 mph /  38.6 km/h 82 % 0.00 in /  0 mm 91 W/m2
11:21 54.7 °F /  12.6 °C 49.9 °F /  9.9 °C 29.74 in /  1007 hPa WNW 13.0 mph /  20.9 km/h 24.0 mph /  38.6 km/h 84 % 0.00 in /  0 mm 214 W/m2
11:26 54.5 °F /  12.5 °C 49.8 °F /  9.9 °C 29.74 in /  1007 hPa WNW 13.0 mph /  20.9 km/h 22.0 mph /  35.4 km/h 84 % 0.00 in /  0 mm 183 W/m2
11:31 54.3 °F /  12.4 °C 49.9 °F /  9.9 °C 29.75 in /  1007.3 hPa WNW 13.0 mph /  20.9 km/h 22.0 mph /  35.4 km/h 85 % 0.00 in /  0 mm 128 W/m2
11:36 54.1 °F /  12.3 °C 50.4 °F /  10.2 °C 29.75 in /  1007.3 hPa West 12.0 mph /  19.3 km/h 22.0 mph /  35.4 km/h 87 % 0.00 in /  0 mm 169 W/m2
11:41 54.0 °F /  12.2 °C 50.5 °F /  10.3 °C 29.75 in /  1007.3 hPa West 10.0 mph /  16.1 km/h 18.0 mph /  29 km/h 88 % 0.00 in /  0 mm 200 W/m2
11:46 54.0 °F /  12.2 °C 50.8 °F /  10.4 °C 29.75 in /  1007.3 hPa West 10.0 mph /  16.1 km/h 18.0 mph /  29 km/h 89 % 0.00 in /  0 mm 156 W/m2
11:51 54.0 °F /  12.2 °C 50.8 °F /  10.4 °C 29.75 in /  1007.3 hPa WNW 10.0 mph /  16.1 km/h 21.0 mph /  33.8 km/h 89 % 0.00 in /  0 mm 137 W/m2
11:56 53.8 °F /  12.1 °C 50.6 °F /  10.3 °C 29.75 in /  1007.3 hPa WNW 11.0 mph /  17.7 km/h 21.0 mph /  33.8 km/h 89 % 0.00 in /  0 mm 190 W/m2
12:01 53.8 °F /  12.1 °C 50.9 °F /  10.5 °C 29.75 in /  1007.3 hPa WNW 10.0 mph /  16.1 km/h 15.0 mph /  24.1 km/h 90 % 0.00 in /  0 mm 227 W/m2
12:06 54.0 °F /  12.2 °C 51.1 °F /  10.6 °C 29.75 in /  1007.3 hPa WNW 9.0 mph /  14.5 km/h 15.0 mph /  24.1 km/h 90 % 0.00 in /  0 mm 297 W/m2
12:11 54.1 °F /  12.3 °C 51.3 °F /  10.7 °C 29.75 in /  1007.3 hPa WNW 9.0 mph /  14.5 km/h 15.0 mph /  24.1 km/h 90 % 0.00 in /  0 mm 130 W/m2
12:16 54.0 °F /  12.2 °C 50.8 °F /  10.4 °C 29.75 in /  1007.3 hPa WNW 10.0 mph /  16.1 km/h 21.0 mph /  33.8 km/h 89 % 0.00 in /  0 mm 67 W/m2
12:21 53.8 °F /  12.1 °C 50.6 °F /  10.3 °C 29.75 in /  1007.3 hPa WNW 11.0 mph /  17.7 km/h 21.0 mph /  33.8 km/h 89 % 0.00 in /  0 mm 90 W/m2
12:26 53.6 °F /  12 °C 50.7 °F /  10.4 °C 29.75 in /  1007.3 hPa WNW 11.0 mph /  17.7 km/h 21.0 mph /  33.8 km/h 90 % 0.01 in /  0.25 mm 132 W/m2
12:31 53.4 °F /  11.9 °C 50.6 °F /  10.3 °C 29.76 in /  1007.7 hPa WNW 9.0 mph /  14.5 km/h 15.0 mph /  24.1 km/h 90 % 0.01 in /  0.25 mm 72 W/m2
12:36 53.4 °F /  11.9 °C 50.9 °F /  10.5 °C 29.76 in /  1007.7 hPa WNW 8.0 mph /  12.9 km/h 14.0 mph /  22.5 km/h 91 % 0.02 in /  0.51 mm 100 W/m2
12:41 53.2 °F /  11.8 °C 50.7 °F /  10.4 °C 29.75 in /  1007.3 hPa WNW 9.0 mph /  14.5 km/h 16.0 mph /  25.7 km/h 91 % 0.02 in /  0.51 mm 207 W/m2
12:46 53.2 °F /  11.8 °C 51.0 °F /  10.6 °C 29.75 in /  1007.3 hPa WNW 8.0 mph /  12.9 km/h 16.0 mph /  25.7 km/h 92 % 0.02 in /  0.51 mm 174 W/m2
12:51 53.4 °F /  11.9 °C 51.2 °F /  10.7 °C 29.75 in /  1007.3 hPa WNW 7.0 mph /  11.3 km/h 15.0 mph /  24.1 km/h 92 % 0.02 in /  0.51 mm 190 W/m2
12:56 53.4 °F /  11.9 °C 51.2 °F /  10.7 °C 29.75 in /  1007.3 hPa WNW 9.0 mph /  14.5 km/h 16.0 mph /  25.7 km/h 92 % 0.02 in /  0.51 mm 315 W/m2
13:01 53.8 °F /  12.1 °C 51.5 °F /  10.8 °C 29.74 in /  1007 hPa WNW 9.0 mph /  14.5 km/h 16.0 mph /  25.7 km/h 92 % 0.02 in /  0.51 mm 234 W/m2
13:06 54.0 °F /  12.2 °C 51.7 °F /  10.9 °C 29.74 in /  1007 hPa WNW 10.0 mph /  16.1 km/h 20.0 mph /  32.2 km/h 92 % 0.02 in /  0.51 mm 250 W/m2
13:11 54.0 °F /  12.2 °C 51.4 °F /  10.8 °C 29.74 in /  1007 hPa WNW 10.0 mph /  16.1 km/h 20.0 mph /  32.2 km/h 91 % 0.02 in /  0.51 mm 234 W/m2
13:16 54.1 °F /  12.3 °C 51.6 °F /  10.9 °C 29.75 in /  1007.3 hPa WNW 11.0 mph /  17.7 km/h 21.0 mph /  33.8 km/h 91 % 0.02 in /  0.51 mm 186 W/m2
13:22 54.1 °F /  12.3 °C 51.3 °F /  10.7 °C 29.75 in /  1007.3 hPa WNW 13.0 mph /  20.9 km/h 21.0 mph /  33.8 km/h 90 % 0.01 in /  0.25 mm 207 W/m2
13:27 54.1 °F /  12.3 °C 51.3 °F /  10.7 °C 29.75 in /  1007.3 hPa WNW 12.0 mph /  19.3 km/h 20.0 mph /  32.2 km/h 90 % 0.01 in /  0.25 mm 162 W/m2
13:32 54.1 °F /  12.3 °C 51.0 °F /  10.6 °C 29.74 in /  1007 hPa WNW 11.0 mph /  17.7 km/h 20.0 mph /  32.2 km/h 89 % 0.01 in /  0.25 mm 134 W/m2
13:37 54.1 °F /  12.3 °C 51.0 °F /  10.6 °C 29.74 in /  1007 hPa West 11.0 mph /  17.7 km/h 20.0 mph /  32.2 km/h 89 % 0.00 in /  0 mm 244 W/m2
13:42 54.3 °F /  12.4 °C 50.8 °F /  10.4 °C 29.74 in /  1007 hPa West 11.0 mph /  17.7 km/h 20.0 mph /  32.2 km/h 88 % 0.00 in /  0 mm 241 W/m2
13:47 54.5 °F /  12.5 °C 51.0 °F /  10.6 °C 29.73 in /  1006.7 hPa West 11.0 mph /  17.7 km/h 20.0 mph /  32.2 km/h 88 % 0.00 in /  0 mm 169 W/m2
13:52 54.7 °F /  12.6 °C 50.9 °F /  10.5 °C 29.74 in /  1007 hPa WNW 12.0 mph /  19.3 km/h 22.0 mph /  35.4 km/h 87 % 0.00 in /  0 mm 114 W/m2
13:57 54.5 °F /  12.5 °C 50.7 °F /  10.4 °C 29.73 in /  1006.7 hPa WNW 11.0 mph /  17.7 km/h 22.0 mph /  35.4 km/h 87 % 0.00 in /  0 mm 250 W/m2
14:02 54.7 °F /  12.6 °C 50.9 °F /  10.5 °C 29.73 in /  1006.7 hPa West 10.0 mph /  16.1 km/h 21.0 mph /  33.8 km/h 87 % 0.00 in /  0 mm 446 W/m2
14:07 55.2 °F /  12.9 °C 51.4 °F /  10.8 °C 29.73 in /  1006.7 hPa WNW 11.0 mph /  17.7 km/h 21.0 mph /  33.8 km/h 87 % 0.00 in /  0 mm 374 W/m2
14:12 55.6 °F /  13.1 °C 51.5 °F /  10.8 °C 29.73 in /  1006.7 hPa WNW 11.0 mph /  17.7 km/h 21.0 mph /  33.8 km/h 86 % 0.00 in /  0 mm 241 W/m2
14:17 55.6 °F /  13.1 °C 51.1 °F /  10.6 °C 29.73 in /  1006.7 hPa West 12.0 mph /  19.3 km/h 22.0 mph /  35.4 km/h 85 % 0.00 in /  0 mm 294 W/m2
14:22 55.6 °F /  13.1 °C 51.1 °F /  10.6 °C 29.73 in /  1006.7 hPa West 12.0 mph /  19.3 km/h 22.0 mph /  35.4 km/h 85 % 0.00 in /  0 mm 176 W/m2
14:27 55.4 °F /  13 °C 50.6 °F /  10.3 °C 29.73 in /  1006.7 hPa WNW 12.0 mph /  19.3 km/h 20.0 mph /  32.2 km/h 84 % 0.00 in /  0 mm 118 W/m2
14:32 55.0 °F /  12.8 °C 50.3 °F /  10.2 °C 29.73 in /  1006.7 hPa West 13.0 mph /  20.9 km/h 23.0 mph /  37 km/h 84 % 0.00 in /  0 mm 207 W/m2
14:37 54.9 °F /  12.7 °C 50.4 °F /  10.2 °C 29.73 in /  1006.7 hPa West 12.0 mph /  19.3 km/h 23.0 mph /  37 km/h 85 % 0.00 in /  0 mm 258 W/m2
14:42 54.9 °F /  12.7 °C 50.4 °F /  10.2 °C 29.74 in /  1007 hPa West 11.0 mph /  17.7 km/h 20.0 mph /  32.2 km/h 85 % 0.00 in /  0 mm 118 W/m2
14:47 54.9 °F /  12.7 °C 50.4 °F /  10.2 °C 29.74 in /  1007 hPa West 12.0 mph /  19.3 km/h 21.0 mph /  33.8 km/h 85 % 0.00 in /  0 mm 239 W/m2
14:52 54.9 °F /  12.7 °C 50.8 °F /  10.4 °C 29.74 in /  1007 hPa WNW 10.0 mph /  16.1 km/h 21.0 mph /  33.8 km/h 86 % 0.00 in /  0 mm 134 W/m2
14:57 54.9 °F /  12.7 °C 50.4 °F /  10.2 °C 29.74 in /  1007 hPa WNW 8.0 mph /  12.9 km/h 18.0 mph /  29 km/h 85 % 0.00 in /  0 mm 90 W/m2
15:02 54.9 °F /  12.7 °C 50.1 °F /  10.1 °C 29.74 in /  1007 hPa WNW 11.0 mph /  17.7 km/h 19.0 mph /  30.6 km/h 84 % 0.00 in /  0 mm 125 W/m2
15:07 54.7 °F /  12.6 °C 49.9 °F /  9.9 °C 29.73 in /  1006.7 hPa WNW 11.0 mph /  17.7 km/h 19.0 mph /  30.6 km/h 84 % 0.00 in /  0 mm 128 W/m2
15:12 54.7 °F /  12.6 °C 49.9 °F /  9.9 °C 29.73 in /  1006.7 hPa WNW 10.0 mph /  16.1 km/h 22.0 mph /  35.4 km/h 84 % 0.00 in /  0 mm 144 W/m2
15:17 54.7 °F /  12.6 °C 49.3 °F /  9.6 °C 29.73 in /  1006.7 hPa WNW 11.0 mph /  17.7 km/h 23.0 mph /  37 km/h 82 % 0.00 in /  0 mm 165 W/m2
15:22 54.7 °F /  12.6 °C 49.6 °F /  9.8 °C 29.73 in /  1006.7 hPa WNW 12.0 mph /  19.3 km/h 23.0 mph /  37 km/h 83 % 0.00 in /  0 mm 141 W/m2
15:27 54.3 °F /  12.4 °C 49.6 °F /  9.8 °C 29.74 in /  1007 hPa WNW 12.0 mph /  19.3 km/h 20.0 mph /  32.2 km/h 84 % 0.00 in /  0 mm 181 W/m2
15:32 54.1 °F /  12.3 °C 49.4 °F /  9.7 °C 29.73 in /  1006.7 hPa WNW 13.0 mph /  20.9 km/h 21.0 mph /  33.8 km/h 84 % 0.00 in /  0 mm 199 W/m2
15:37 54.1 °F /  12.3 °C 49.7 °F /  9.8 °C 29.73 in /  1006.7 hPa WNW 11.0 mph /  17.7 km/h 21.0 mph /  33.8 km/h 85 % 0.00 in /  0 mm 148 W/m2
15:42 54.0 °F /  12.2 °C 49.6 °F /  9.8 °C 29.73 in /  1006.7 hPa WNW 10.0 mph /  16.1 km/h 19.0 mph /  30.6 km/h 85 % 0.00 in /  0 mm 67 W/m2
15:47 53.8 °F /  12.1 °C 49.7 °F /  9.8 °C 29.73 in /  1006.7 hPa WNW 8.0 mph /  12.9 km/h 19.0 mph /  30.6 km/h 86 % 0.00 in /  0 mm 88 W/m2
15:52 53.4 °F /  11.9 °C 49.6 °F /  9.8 °C 29.73 in /  1006.7 hPa WNW 6.0 mph /  9.7 km/h 13.0 mph /  20.9 km/h 87 % 0.00 in /  0 mm 46 W/m2
15:57 53.2 °F /  11.8 °C 49.8 °F /  9.9 °C 29.73 in /  1006.7 hPa WNW 6.0 mph /  9.7 km/h 9.0 mph /  14.5 km/h 88 % 0.00 in /  0 mm 28 W/m2
16:02 53.1 °F /  11.7 °C 49.6 °F /  9.8 °C 29.73 in /  1006.7 hPa WNW 6.0 mph /  9.7 km/h 10.0 mph /  16.1 km/h 88 % 0.00 in /  0 mm 70 W/m2
16:07 52.9 °F /  11.6 °C 49.7 °F /  9.8 °C 29.73 in /  1006.7 hPa WNW 5.0 mph /  8 km/h 10.0 mph /  16.1 km/h 89 % 0.00 in /  0 mm 54 W/m2
16:12 52.9 °F /  11.6 °C 50.0 °F /  10 °C 29.72 in /  1006.3 hPa WNW 5.0 mph /  8 km/h 9.0 mph /  14.5 km/h 90 % 0.00 in /  0 mm 74 W/m2
16:17 52.9 °F /  11.6 °C 50.0 °F /  10 °C 29.73 in /  1006.7 hPa WNW 4.0 mph /  6.4 km/h 9.0 mph /  14.5 km/h 90 % 0.00 in /  0 mm 37 W/m2
16:22 52.9 °F /  11.6 °C 50.0 °F /  10 °C 29.73 in /  1006.7 hPa WNW 3.0 mph /  4.8 km/h 7.0 mph /  11.3 km/h 90 % 0.00 in /  0 mm 28 W/m2
16:27 52.9 °F /  11.6 °C 50.3 °F /  10.2 °C 29.73 in /  1006.7 hPa WNW 2.0 mph /  3.2 km/h 7.0 mph /  11.3 km/h 91 % 0.00 in /  0 mm 26 W/m2
16:32 52.9 °F /  11.6 °C 50.3 °F /  10.2 °C 29.74 in /  1007 hPa WNW 2.0 mph /  3.2 km/h 6.0 mph /  9.7 km/h 91 % 0.00 in /  0 mm 30 W/m2
16:34 52.9 °F /  11.6 °C 50.3 °F /  10.2 °C 29.74 in /  1007 hPa WNW 2.0 mph /  3.2 km/h 8.0 mph /  12.9 km/h 91 % 0.00 in /  0 mm 30 W/m2
16:41 53.1 °F /  11.7 °C 50.5 °F /  10.3 °C 29.73 in /  1006.7 hPa West 6.0 mph /  9.7 km/h 8.0 mph /  12.9 km/h 91 % 0.00 in /  0 mm 35 W/m2
16:46 53.1 °F /  11.7 °C 50.2 °F /  10.1 °C 29.73 in /  1006.7 hPa West 7.0 mph /  11.3 km/h 15.0 mph /  24.1 km/h 90 % 0.00 in /  0 mm 74 W/m2
16:51 53.2 °F /  11.8 °C 50.4 °F /  10.2 °C 29.73 in /  1006.7 hPa West 8.0 mph /  12.9 km/h 16.0 mph /  25.7 km/h 90 % 0.00 in /  0 mm 81 W/m2
16:56 53.4 °F /  11.9 °C 50.3 °F /  10.2 °C 29.73 in /  1006.7 hPa West 8.0 mph /  12.9 km/h 16.0 mph /  25.7 km/h 89 % 0.00 in /  0 mm 123 W/m2
17:01 53.6 °F /  12 °C 50.4 °F /  10.2 °C 29.72 in /  1006.3 hPa West 8.0 mph /  12.9 km/h 16.0 mph /  25.7 km/h 89 % 0.00 in /  0 mm 107 W/m2
17:06 53.8 °F /  12.1 °C 50.3 °F /  10.2 °C 29.73 in /  1006.7 hPa West 8.0 mph /  12.9 km/h 19.0 mph /  30.6 km/h 88 % 0.00 in /  0 mm 83 W/m2
17:11 53.8 °F /  12.1 °C 50.3 °F /  10.2 °C 29.73 in /  1006.7 hPa West 10.0 mph /  16.1 km/h 19.0 mph /  30.6 km/h 88 % 0.00 in /  0 mm 91 W/m2
17:16 53.8 °F /  12.1 °C 50.3 °F /  10.2 °C 29.74 in /  1007 hPa West 10.0 mph /  16.1 km/h 16.0 mph /  25.7 km/h 88 % 0.00 in /  0 mm 98 W/m2
17:21 53.8 °F /  12.1 °C 50.3 °F /  10.2 °C 29.74 in /  1007 hPa West 9.0 mph /  14.5 km/h 14.0 mph /  22.5 km/h 88 % 0.00 in /  0 mm 104 W/m2
17:26 53.8 °F /  12.1 °C 50.3 °F /  10.2 °C 29.73 in /  1006.7 hPa West 8.0 mph /  12.9 km/h 14.0 mph /  22.5 km/h 88 % 0.00 in /  0 mm 58 W/m2
17:31 53.8 °F /  12.1 °C 50.3 °F /  10.2 °C 29.74 in /  1007 hPa West 7.0 mph /  11.3 km/h 12.0 mph /  19.3 km/h 88 % 0.00 in /  0 mm 51 W/m2
17:36 53.8 °F /  12.1 °C 50.3 °F /  10.2 °C 29.74 in /  1007 hPa West 6.0 mph /  9.7 km/h 10.0 mph /  16.1 km/h 88 % 0.00 in /  0 mm 51 W/m2
17:41 53.8 °F /  12.1 °C 50.3 °F /  10.2 °C 29.74 in /  1007 hPa West 6.0 mph /  9.7 km/h 9.0 mph /  14.5 km/h 88 % 0.00 in /  0 mm 30 W/m2
17:46 53.6 °F /  12 °C 50.1 °F /  10.1 °C 29.74 in /  1007 hPa West 7.0 mph /  11.3 km/h 13.0 mph /  20.9 km/h 88 % 0.00 in /  0 mm 12 W/m2
17:51 53.6 °F /  12 °C 49.8 °F /  9.9 °C 29.74 in /  1007 hPa West 8.0 mph /  12.9 km/h 13.0 mph /  20.9 km/h 87 % 0.00 in /  0 mm 9 W/m2
17:52 53.6 °F /  12 °C 49.8 °F /  9.9 °C 29.74 in /  1007 hPa West 8.0 mph /  12.9 km/h 13.0 mph /  20.9 km/h 87 % 0.00 in /  0 mm 7 W/m2
17:57 53.4 °F /  11.9 °C 50.0 °F /  10 °C 29.74 in /  1007 hPa West 7.0 mph /  11.3 km/h 13.0 mph /  20.9 km/h 88 % 0.00 in /  0 mm 5 W/m2
18:02 53.4 °F /  11.9 °C 50.0 °F /  10 °C 29.74 in /  1007 hPa West 8.0 mph /  12.9 km/h 13.0 mph /  20.9 km/h 88 % 0.00 in /  0 mm 0 W/m2
18:07 53.2 °F /  11.8 °C 49.8 °F /  9.9 °C 29.74 in /  1007 hPa West 6.0 mph /  9.7 km/h 13.0 mph /  20.9 km/h 88 % 0.00 in /  0 mm 0 W/m2
18:12 53.2 °F /  11.8 °C 49.8 °F /  9.9 °C 29.75 in /  1007.3 hPa West 6.0 mph /  9.7 km/h 10.0 mph /  16.1 km/h 88 % 0.00 in /  0 mm 0 W/m2
18:17 53.2 °F /  11.8 °C 50.1 °F /  10.1 °C 29.75 in /  1007.3 hPa West 6.0 mph /  9.7 km/h 10.0 mph /  16.1 km/h 89 % 0.00 in /  0 mm 0 W/m2
18:22 53.2 °F /  11.8 °C 50.1 °F /  10.1 °C 29.74 in /  1007 hPa West 5.0 mph /  8 km/h 10.0 mph /  16.1 km/h 89 % 0.00 in /  0 mm 0 W/m2
18:27 53.2 °F /  11.8 °C 50.1 °F /  10.1 °C 29.74 in /  1007 hPa WSW 6.0 mph /  9.7 km/h 11.0 mph /  17.7 km/h 89 % 0.00 in /  0 mm 0 W/m2
18:32 53.1 °F /  11.7 °C 49.9 °F /  9.9 °C 29.74 in /  1007 hPa WSW 6.0 mph /  9.7 km/h 11.0 mph /  17.7 km/h 89 % 0.00 in /  0 mm 0 W/m2
18:37 53.1 °F /  11.7 °C 49.9 °F /  9.9 °C 29.74 in /  1007 hPa WSW 5.0 mph /  8 km/h 10.0 mph /  16.1 km/h 89 % 0.00 in /  0 mm 0 W/m2
18:42 53.1 °F /  11.7 °C 50.2 °F /  10.1 °C 29.74 in /  1007 hPa WSW 5.0 mph /  8 km/h 14.0 mph /  22.5 km/h 90 % 0.00 in /  0 mm 0 W/m2
18:52 53.1 °F /  11.7 °C 50.2 °F /  10.1 °C 29.74 in /  1007 hPa West 7.0 mph /  11.3 km/h 11.0 mph /  17.7 km/h 90 % 0.00 in /  0 mm 0 W/m2
18:57 53.1 °F /  11.7 °C 50.2 °F /  10.1 °C 29.74 in /  1007 hPa West 7.0 mph /  11.3 km/h 14.0 mph /  22.5 km/h 90 % 0.00 in /  0 mm 0 W/m2
19:02 53.2 °F /  11.8 °C 50.1 °F /  10.1 °C 29.74 in /  1007 hPa West 7.0 mph /  11.3 km/h 15.0 mph /  24.1 km/h 89 % 0.00 in /  0 mm 0 W/m2
19:07 53.2 °F /  11.8 °C 50.1 °F /  10.1 °C 29.74 in /  1007 hPa West 7.0 mph /  11.3 km/h 15.0 mph /  24.1 km/h 89 % 0.00 in /  0 mm 0 W/m2
19:12 53.2 °F /  11.8 °C 50.1 °F /  10.1 °C 29.74 in /  1007 hPa West 7.0 mph /  11.3 km/h 12.0 mph /  19.3 km/h 89 % 0.00 in /  0 mm 0 W/m2
19:17 53.2 °F /  11.8 °C 50.1 °F /  10.1 °C 29.74 in /  1007 hPa West 7.0 mph /  11.3 km/h 14.0 mph /  22.5 km/h 89 % 0.00 in /  0 mm 0 W/m2
19:22 53.4 °F /  11.9 °C 50.3 °F /  10.2 °C 29.74 in /  1007 hPa West 8.0 mph /  12.9 km/h 14.0 mph /  22.5 km/h 89 % 0.00 in /  0 mm 0 W/m2
19:27 53.4 °F /  11.9 °C 50.3 °F /  10.2 °C 29.74 in /  1007 hPa West 6.0 mph /  9.7 km/h 13.0 mph /  20.9 km/h 89 % 0.00 in /  0 mm 0 W/m2
19:32 53.4 °F /  11.9 °C 50.3 °F /  10.2 °C 29.74 in /  1007 hPa West 8.0 mph /  12.9 km/h 16.0 mph /  25.7 km/h 89 % 0.00 in /  0 mm 0 W/m2
19:37 53.4 °F /  11.9 °C 50.3 °F /  10.2 °C 29.74 in /  1007 hPa West 9.0 mph /  14.5 km/h 16.0 mph /  25.7 km/h 89 % 0.00 in /  0 mm 0 W/m2
19:42 53.4 °F /  11.9 °C 50.3 °F /  10.2 °C 29.74 in /  1007 hPa West 9.0 mph /  14.5 km/h 15.0 mph /  24.1 km/h 89 % 0.00 in /  0 mm 0 W/m2
19:47 53.4 °F /  11.9 °C 50.3 °F /  10.2 °C 29.74 in /  1007 hPa West 9.0 mph /  14.5 km/h 15.0 mph /  24.1 km/h 89 % 0.00 in /  0 mm 0 W/m2
19:52 53.4 °F /  11.9 °C 50.6 °F /  10.3 °C 29.74 in /  1007 hPa WSW 9.0 mph /  14.5 km/h 15.0 mph /  24.1 km/h 90 % 0.00 in /  0 mm 0 W/m2
19:57 53.4 °F /  11.9 °C 50.6 °F /  10.3 °C 29.74 in /  1007 hPa WSW 9.0 mph /  14.5 km/h 18.0 mph /  29 km/h 90 % 0.00 in /  0 mm 0 W/m2
20:02 53.4 °F /  11.9 °C 50.6 °F /  10.3 °C 29.74 in /  1007 hPa WSW 8.0 mph /  12.9 km/h 18.0 mph /  29 km/h 90 % 0.00 in /  0 mm 0 W/m2
20:07 53.4 °F /  11.9 °C 50.6 °F /  10.3 °C 29.74 in /  1007 hPa West 8.0 mph /  12.9 km/h 14.0 mph /  22.5 km/h 90 % 0.00 in /  0 mm 0 W/m2
20:12 53.2 °F /  11.8 °C 50.4 °F /  10.2 °C 29.74 in /  1007 hPa West 9.0 mph /  14.5 km/h 15.0 mph /  24.1 km/h 90 % 0.00 in /  0 mm 0 W/m2
20:17 53.2 °F /  11.8 °C 50.4 °F /  10.2 °C 29.74 in /  1007 hPa West 9.0 mph /  14.5 km/h 15.0 mph /  24.1 km/h 90 % 0.00 in /  0 mm 0 W/m2
20:22 53.2 °F /  11.8 °C 50.4 °F /  10.2 °C 29.74 in /  1007 hPa West 10.0 mph /  16.1 km/h 18.0 mph /  29 km/h 90 % 0.00 in /  0 mm 0 W/m2
20:27 53.2 °F /  11.8 °C 50.7 °F /  10.4 °C 29.74 in /  1007 hPa West 11.0 mph /  17.7 km/h 20.0 mph /  32.2 km/h 91 % 0.00 in /  0 mm 0 W/m2
20:32 53.2 °F /  11.8 °C 50.7 °F /  10.4 °C 29.73 in /  1006.7 hPa West 11.0 mph /  17.7 km/h 20.0 mph /  32.2 km/h 91 % 0.00 in /  0 mm 0 W/m2
20:38 53.1 °F /  11.7 °C 50.5 °F /  10.3 °C 29.73 in /  1006.7 hPa West 10.0 mph /  16.1 km/h 18.0 mph /  29 km/h 91 % 0.00 in /  0 mm 0 W/m2
20:43 53.1 °F /  11.7 °C 50.5 °F /  10.3 °C 29.73 in /  1006.7 hPa West 10.0 mph /  16.1 km/h 18.0 mph /  29 km/h 91 % 0.00 in /  0 mm 0 W/m2
20:48 53.1 °F /  11.7 °C 50.5 °F /  10.3 °C 29.74 in /  1007 hPa West 10.0 mph /  16.1 km/h 20.0 mph /  32.2 km/h 91 % 0.00 in /  0 mm 0 W/m2
20:53 53.1 °F /  11.7 °C 50.5 °F /  10.3 °C 29.73 in /  1006.7 hPa West 10.0 mph /  16.1 km/h 20.0 mph /  32.2 km/h 91 % 0.00 in /  0 mm 0 W/m2
20:58 53.1 °F /  11.7 °C 50.5 °F /  10.3 °C 29.73 in /  1006.7 hPa West 10.0 mph /  16.1 km/h 16.0 mph /  25.7 km/h 91 % 0.00 in /  0 mm 0 W/m2
21:03 53.1 °F /  11.7 °C 50.5 °F /  10.3 °C 29.72 in /  1006.3 hPa West 9.0 mph /  14.5 km/h 16.0 mph /  25.7 km/h 91 % 0.00 in /  0 mm 0 W/m2
21:08 53.1 °F /  11.7 °C 50.5 °F /  10.3 °C 29.72 in /  1006.3 hPa West 8.0 mph /  12.9 km/h 14.0 mph /  22.5 km/h 91 % 0.00 in /  0 mm 0 W/m2
21:13 53.2 °F /  11.8 °C 50.7 °F /  10.4 °C 29.72 in /  1006.3 hPa West 8.0 mph /  12.9 km/h 13.0 mph /  20.9 km/h 91 % 0.00 in /  0 mm 0 W/m2
21:18 53.2 °F /  11.8 °C 50.7 °F /  10.4 °C 29.72 in /  1006.3 hPa West 8.0 mph /  12.9 km/h 14.0 mph /  22.5 km/h 91 % 0.00 in /  0 mm 0 W/m2
21:23 53.2 °F /  11.8 °C 50.7 °F /  10.4 °C 29.72 in /  1006.3 hPa West 8.0 mph /  12.9 km/h 16.0 mph /  25.7 km/h 91 % 0.00 in /  0 mm 0 W/m2
21:28 53.2 °F /  11.8 °C 50.7 °F /  10.4 °C 29.72 in /  1006.3 hPa West 9.0 mph /  14.5 km/h 18.0 mph /  29 km/h 91 % 0.00 in /  0 mm 0 W/m2
21:33 53.4 °F /  11.9 °C 50.9 °F /  10.5 °C 29.71 in /  1006 hPa West 9.0 mph /  14.5 km/h 18.0 mph /  29 km/h 91 % 0.00 in /  0 mm 0 W/m2
21:38 53.4 °F /  11.9 °C 50.6 °F /  10.3 °C 29.71 in /  1006 hPa West 9.0 mph /  14.5 km/h 14.0 mph /  22.5 km/h 90 % 0.00 in /  0 mm 0 W/m2
21:43 53.4 °F /  11.9 °C 50.6 °F /  10.3 °C 29.72 in /  1006.3 hPa West 8.0 mph /  12.9 km/h 13.0 mph /  20.9 km/h 90 % 0.00 in /  0 mm 0 W/m2
21:48 53.4 °F /  11.9 °C 50.6 °F /  10.3 °C 29.72 in /  1006.3 hPa West 8.0 mph /  12.9 km/h 18.0 mph /  29 km/h 90 % 0.00 in /  0 mm 0 W/m2
21:53 53.4 °F /  11.9 °C 50.9 °F /  10.5 °C 29.71 in /  1006 hPa West 9.0 mph /  14.5 km/h 18.0 mph /  29 km/h 91 % 0.00 in /  0 mm 0 W/m2
21:58 53.4 °F /  11.9 °C 50.9 °F /  10.5 °C 29.71 in /  1006 hPa West 9.0 mph /  14.5 km/h 16.0 mph /  25.7 km/h 91 % 0.00 in /  0 mm 0 W/m2
22:03 53.4 °F /  11.9 °C 50.9 °F /  10.5 °C 29.71 in /  1006 hPa West 9.0 mph /  14.5 km/h 15.0 mph /  24.1 km/h 91 % 0.00 in /  0 mm 0 W/m2
22:08 53.4 °F /  11.9 °C 50.9 °F /  10.5 °C 29.71 in /  1006 hPa West 9.0 mph /  14.5 km/h 16.0 mph /  25.7 km/h 91 % 0.00 in /  0 mm 0 W/m2
22:13 53.4 °F /  11.9 °C 51.2 °F /  10.7 °C 29.71 in /  1006 hPa WSW 9.0 mph /  14.5 km/h 16.0 mph /  25.7 km/h 92 % 0.00 in /  0 mm 0 W/m2
22:18 53.2 °F /  11.8 °C 51.0 °F /  10.6 °C 29.71 in /  1006 hPa WSW 9.0 mph /  14.5 km/h 16.0 mph /  25.7 km/h 92 % 0.00 in /  0 mm 0 W/m2
22:23 53.2 °F /  11.8 °C 51.0 °F /  10.6 °C 29.70 in /  1005.6 hPa West 9.0 mph /  14.5 km/h 16.0 mph /  25.7 km/h 92 % 0.00 in /  0 mm 0 W/m2
22:28 53.2 °F /  11.8 °C 51.0 °F /  10.6 °C 29.70 in /  1005.6 hPa WSW 9.0 mph /  14.5 km/h 15.0 mph /  24.1 km/h 92 % 0.00 in /  0 mm 0 W/m2
22:33 53.2 °F /  11.8 °C 51.0 °F /  10.6 °C 29.70 in /  1005.6 hPa WSW 9.0 mph /  14.5 km/h 15.0 mph /  24.1 km/h 92 % 0.00 in /  0 mm 0 W/m2
22:38 53.2 °F /  11.8 °C 51.3 °F /  10.7 °C 29.70 in /  1005.6 hPa WSW 9.0 mph /  14.5 km/h 16.0 mph /  25.7 km/h 93 % 0.00 in /  0 mm 0 W/m2
22:43 53.2 °F /  11.8 °C 51.3 °F /  10.7 °C 29.70 in /  1005.6 hPa WSW 10.0 mph /  16.1 km/h 16.0 mph /  25.7 km/h 93 % 0.00 in /  0 mm 0 W/m2
22:48 53.1 °F /  11.7 °C 51.1 °F /  10.6 °C 29.69 in /  1005.3 hPa WSW 10.0 mph /  16.1 km/h 15.0 mph /  24.1 km/h 93 % 0.00 in /  0 mm 0 W/m2
22:53 53.1 °F /  11.7 °C 51.1 °F /  10.6 °C 29.69 in /  1005.3 hPa WSW 9.0 mph /  14.5 km/h 15.0 mph /  24.1 km/h 93 % 0.00 in /  0 mm 0 W/m2
22:58 53.1 °F /  11.7 °C 51.1 °F /  10.6 °C 29.69 in /  1005.3 hPa WSW 9.0 mph /  14.5 km/h 14.0 mph /  22.5 km/h 93 % 0.00 in /  0 mm 0 W/m2
23:04 53.1 °F /  11.7 °C 51.1 °F /  10.6 °C 29.69 in /  1005.3 hPa WSW 8.0 mph /  12.9 km/h 14.0 mph /  22.5 km/h 93 % 0.00 in /  0 mm 0 W/m2
23:09 52.9 °F /  11.6 °C 50.9 °F /  10.5 °C 29.70 in /  1005.6 hPa WSW 8.0 mph /  12.9 km/h 13.0 mph /  20.9 km/h 93 % 0.00 in /  0 mm 0 W/m2
23:14 53.1 °F /  11.7 °C 51.1 °F /  10.6 °C 29.69 in /  1005.3 hPa WSW 9.0 mph /  14.5 km/h 19.0 mph /  30.6 km/h 93 % 0.00 in /  0 mm 0 W/m2
23:19 53.1 °F /  11.7 °C 51.1 °F /  10.6 °C 29.69 in /  1005.3 hPa WSW 10.0 mph /  16.1 km/h 19.0 mph /  30.6 km/h 93 % 0.00 in /  0 mm 0 W/m2
23:24 53.2 °F /  11.8 °C 51.3 °F /  10.7 °C 29.69 in /  1005.3 hPa WSW 11.0 mph /  17.7 km/h 19.0 mph /  30.6 km/h 93 % 0.00 in /  0 mm 0 W/m2
23:29 53.4 °F /  11.9 °C 51.4 °F /  10.8 °C 29.69 in /  1005.3 hPa WSW 11.0 mph /  17.7 km/h 20.0 mph /  32.2 km/h 93 % 0.00 in /  0 mm 0 W/m2
23:34 53.4 °F /  11.9 °C 51.2 °F /  10.7 °C 29.69 in /  1005.3 hPa WSW 11.0 mph /  17.7 km/h 20.0 mph /  32.2 km/h 92 % 0.00 in /  0 mm 0 W/m2
23:39 53.6 °F /  12 °C 51.3 °F /  10.7 °C 29.69 in /  1005.3 hPa WSW 11.0 mph /  17.7 km/h 21.0 mph /  33.8 km/h 92 % 0.00 in /  0 mm 0 W/m2
23:44 53.8 °F /  12.1 °C 51.5 °F /  10.8 °C 29.68 in /  1005 hPa WSW 12.0 mph /  19.3 km/h 21.0 mph /  33.8 km/h 92 % 0.00 in /  0 mm 0 W/m2
23:49 54.0 °F /  12.2 °C 51.4 °F /  10.8 °C 29.68 in /  1005 hPa WSW 13.0 mph /  20.9 km/h 21.0 mph /  33.8 km/h 91 % 0.00 in /  0 mm 0 W/m2
23:54 54.0 °F /  12.2 °C 51.4 °F /  10.8 °C 29.68 in /  1005 hPa WSW 13.0 mph /  20.9 km/h 23.0 mph /  37 km/h 91 % 0.00 in /  0 mm 0 W/m2
23:59 54.1 °F /  12.3 °C 51.6 °F /  10.9 °C 29.68 in /  1005 hPa WSW 13.0 mph /  20.9 km/h 23.0 mph /  37 km/h 91 % 0.00 in /  0 mm 0 W/m2
Delerius-Weather
Compliments of Weather Underground - 2.25 mb

Data updates at regular intervals.